sensor_id;sensor_type;location;lat;lon;timestamp;P1;durP1;ratioP1;P2;durP2;ratioP2
2548;SDS011;1284;53.520;10.248;2023-07-29T00:01:34;0.82;;;0.65;;
2548;SDS011;1284;53.520;10.248;2023-07-29T00:03:59;0.43;;;0.40;;
2548;SDS011;1284;53.520;10.248;2023-07-29T00:06:25;0.70;;;0.63;;
2548;SDS011;1284;53.520;10.248;2023-07-29T00:08:50;0.77;;;0.65;;
2548;SDS011;1284;53.520;10.248;2023-07-29T00:11:16;1.20;;;0.77;;
2548;SDS011;1284;53.520;10.248;2023-07-29T00:13:41;1.40;;;1.10;;
2548;SDS011;1284;53.520;10.248;2023-07-29T00:16:07;0.75;;;0.63;;
2548;SDS011;1284;53.520;10.248;2023-07-29T00:18:32;1.00;;;0.90;;
2548;SDS011;1284;53.520;10.248;2023-07-29T00:20:58;1.02;;;0.73;;
2548;SDS011;1284;53.520;10.248;2023-07-29T00:23:23;0.82;;;0.60;;
2548;SDS011;1284;53.520;10.248;2023-07-29T00:25:48;0.77;;;0.77;;
2548;SDS011;1284;53.520;10.248;2023-07-29T00:28:14;2.03;;;1.25;;
2548;SDS011;1284;53.520;10.248;2023-07-29T00:30:40;1.08;;;0.88;;
2548;SDS011;1284;53.520;10.248;2023-07-29T00:33:05;0.82;;;0.77;;
2548;SDS011;1284;53.520;10.248;2023-07-29T00:35:31;1.73;;;1.00;;
2548;SDS011;1284;53.520;10.248;2023-07-29T00:37:59;1.52;;;1.05;;
2548;SDS011;1284;53.520;10.248;2023-07-29T00:40:25;2.00;;;1.10;;
2548;SDS011;1284;53.520;10.248;2023-07-29T00:42:53;1.90;;;1.27;;
2548;SDS011;1284;53.520;10.248;2023-07-29T00:45:19;1.55;;;1.02;;
2548;SDS011;1284;53.520;10.248;2023-07-29T00:47:44;1.65;;;1.08;;
2548;SDS011;1284;53.520;10.248;2023-07-29T00:50:11;2.10;;;1.20;;
2548;SDS011;1284;53.520;10.248;2023-07-29T00:52:37;1.65;;;1.27;;
2548;SDS011;1284;53.520;10.248;2023-07-29T00:55:03;1.73;;;1.15;;
2548;SDS011;1284;53.520;10.248;2023-07-29T00:57:30;1.58;;;1.15;;
2548;SDS011;1284;53.520;10.248;2023-07-29T00:59:55;1.70;;;1.05;;
2548;SDS011;1284;53.520;10.248;2023-07-29T01:02:21;2.08;;;1.27;;
2548;SDS011;1284;53.520;10.248;2023-07-29T01:04:51;1.25;;;1.05;;
2548;SDS011;1284;53.520;10.248;2023-07-29T01:07:23;2.08;;;1.40;;
2548;SDS011;1284;53.520;10.248;2023-07-29T01:09:52;1.55;;;0.90;;
2548;SDS011;1284;53.520;10.248;2023-07-29T01:12:44;2.22;;;1.38;;
2548;SDS011;1284;53.520;10.248;2023-07-29T01:18:15;2.47;;;1.42;;
2548;SDS011;1284;53.520;10.248;2023-07-29T01:20:47;2.08;;;1.20;;
2548;SDS011;1284;53.520;10.248;2023-07-29T01:23:25;1.58;;;1.40;;
2548;SDS011;1284;53.520;10.248;2023-07-29T01:25:51;1.85;;;1.38;;
2548;SDS011;1284;53.520;10.248;2023-07-29T01:28:16;2.13;;;1.30;;
2548;SDS011;1284;53.520;10.248;2023-07-29T01:30:42;1.98;;;1.33;;
2548;SDS011;1284;53.520;10.248;2023-07-29T01:33:13;2.28;;;1.02;;
2548;SDS011;1284;53.520;10.248;2023-07-29T01:35:48;1.92;;;1.35;;
2548;SDS011;1284;53.520;10.248;2023-07-29T01:38:24;3.88;;;1.38;;
2548;SDS011;1284;53.520;10.248;2023-07-29T01:40:56;2.38;;;1.33;;
2548;SDS011;1284;53.520;10.248;2023-07-29T01:43:26;3.47;;;1.25;;
2548;SDS011;1284;53.520;10.248;2023-07-29T01:45:52;1.88;;;1.27;;
2548;SDS011;1284;53.520;10.248;2023-07-29T01:48:18;2.90;;;1.52;;
2548;SDS011;1284;53.520;10.248;2023-07-29T01:50:43;1.35;;;1.25;;
2548;SDS011;1284;53.520;10.248;2023-07-29T01:53:09;2.13;;;1.58;;
2548;SDS011;1284;53.520;10.248;2023-07-29T01:55:34;2.58;;;1.50;;
2548;SDS011;1284;53.520;10.248;2023-07-29T01:57:59;1.48;;;1.20;;
2548;SDS011;1284;53.520;10.248;2023-07-29T02:00:26;2.03;;;1.40;;
2548;SDS011;1284;53.520;10.248;2023-07-29T02:02:51;1.83;;;1.30;;
2548;SDS011;1284;53.520;10.248;2023-07-29T02:05:16;2.65;;;1.65;;
2548;SDS011;1284;53.520;10.248;2023-07-29T02:07:42;3.22;;;1.50;;
2548;SDS011;1284;53.520;10.248;2023-07-29T02:10:07;2.28;;;1.35;;
2548;SDS011;1284;53.520;10.248;2023-07-29T02:12:33;2.67;;;1.52;;
2548;SDS011;1284;53.520;10.248;2023-07-29T02:15:00;2.92;;;1.77;;
2548;SDS011;1284;53.520;10.248;2023-07-29T02:17:25;3.72;;;1.67;;
2548;SDS011;1284;53.520;10.248;2023-07-29T02:19:51;2.53;;;1.42;;
2548;SDS011;1284;53.520;10.248;2023-07-29T02:22:17;3.42;;;1.85;;
2548;SDS011;1284;53.520;10.248;2023-07-29T02:24:43;6.43;;;1.77;;
2548;SDS011;1284;53.520;10.248;2023-07-29T02:27:10;2.70;;;1.42;;
2548;SDS011;1284;53.520;10.248;2023-07-29T02:29:35;4.30;;;1.63;;
2548;SDS011;1284;53.520;10.248;2023-07-29T02:32:02;2.40;;;1.45;;
2548;SDS011;1284;53.520;10.248;2023-07-29T02:34:28;2.10;;;1.55;;
2548;SDS011;1284;53.520;10.248;2023-07-29T02:36:53;3.30;;;1.70;;
2548;SDS011;1284;53.520;10.248;2023-07-29T02:39:19;2.55;;;1.75;;
2548;SDS011;1284;53.520;10.248;2023-07-29T02:41:45;2.42;;;1.67;;
2548;SDS011;1284;53.520;10.248;2023-07-29T02:44:10;3.88;;;1.88;;
2548;SDS011;1284;53.520;10.248;2023-07-29T02:46:36;1.95;;;1.27;;
2548;SDS011;1284;53.520;10.248;2023-07-29T02:49:02;2.65;;;1.40;;
2548;SDS011;1284;53.520;10.248;2023-07-29T02:51:28;3.45;;;1.85;;
2548;SDS011;1284;53.520;10.248;2023-07-29T02:53:57;2.70;;;1.70;;
2548;SDS011;1284;53.520;10.248;2023-07-29T02:56:23;3.20;;;1.88;;
2548;SDS011;1284;53.520;10.248;2023-07-29T02:58:49;3.45;;;1.98;;
2548;SDS011;1284;53.520;10.248;2023-07-29T03:01:17;2.80;;;1.90;;
2548;SDS011;1284;53.520;10.248;2023-07-29T03:03:46;3.63;;;2.10;;
2548;SDS011;1284;53.520;10.248;2023-07-29T03:06:13;4.10;;;2.15;;
2548;SDS011;1284;53.520;10.248;2023-07-29T03:08:39;3.50;;;2.00;;
2548;SDS011;1284;53.520;10.248;2023-07-29T03:11:09;2.88;;;2.05;;
2548;SDS011;1284;53.520;10.248;2023-07-29T03:16:05;2.78;;;1.60;;
2548;SDS011;1284;53.520;10.248;2023-07-29T03:18:31;5.40;;;1.73;;
2548;SDS011;1284;53.520;10.248;2023-07-29T03:20:56;3.03;;;2.10;;
2548;SDS011;1284;53.520;10.248;2023-07-29T03:23:22;1.90;;;1.63;;
2548;SDS011;1284;53.520;10.248;2023-07-29T03:25:50;4.10;;;2.03;;
2548;SDS011;1284;53.520;10.248;2023-07-29T03:28:16;3.97;;;2.25;;
2548;SDS011;1284;53.520;10.248;2023-07-29T03:30:42;5.72;;;2.95;;
2548;SDS011;1284;53.520;10.248;2023-07-29T03:33:07;2.90;;;2.15;;
2548;SDS011;1284;53.520;10.248;2023-07-29T03:35:33;3.22;;;1.90;;
2548;SDS011;1284;53.520;10.248;2023-07-29T03:37:58;3.92;;;2.15;;
2548;SDS011;1284;53.520;10.248;2023-07-29T03:40:24;3.45;;;2.33;;
2548;SDS011;1284;53.520;10.248;2023-07-29T03:42:49;3.97;;;2.28;;
2548;SDS011;1284;53.520;10.248;2023-07-29T03:45:14;5.72;;;2.47;;
2548;SDS011;1284;53.520;10.248;2023-07-29T03:47:40;3.92;;;2.55;;
2548;SDS011;1284;53.520;10.248;2023-07-29T03:50:06;3.45;;;2.00;;
2548;SDS011;1284;53.520;10.248;2023-07-29T03:52:32;3.03;;;1.92;;
2548;SDS011;1284;53.520;10.248;2023-07-29T03:54:57;3.60;;;1.95;;
2548;SDS011;1284;53.520;10.248;2023-07-29T03:57:22;4.47;;;2.58;;
2548;SDS011;1284;53.520;10.248;2023-07-29T03:59:48;4.05;;;2.53;;
2548;SDS011;1284;53.520;10.248;2023-07-29T04:02:13;3.28;;;2.15;;
2548;SDS011;1284;53.520;10.248;2023-07-29T04:04:41;4.53;;;2.83;;
2548;SDS011;1284;53.520;10.248;2023-07-29T04:07:07;6.15;;;2.92;;
2548;SDS011;1284;53.520;10.248;2023-07-29T04:09:33;6.03;;;2.53;;
2548;SDS011;1284;53.520;10.248;2023-07-29T04:11:59;4.38;;;2.55;;
2548;SDS011;1284;53.520;10.248;2023-07-29T04:14:24;4.65;;;2.60;;
2548;SDS011;1284;53.520;10.248;2023-07-29T04:16:49;7.30;;;2.40;;
2548;SDS011;1284;53.520;10.248;2023-07-29T04:19:15;4.72;;;2.92;;
2548;SDS011;1284;53.520;10.248;2023-07-29T04:21:41;5.50;;;3.03;;
2548;SDS011;1284;53.520;10.248;2023-07-29T04:24:06;9.18;;;2.80;;
2548;SDS011;1284;53.520;10.248;2023-07-29T04:26:32;5.38;;;2.85;;
2548;SDS011;1284;53.520;10.248;2023-07-29T04:28:57;5.43;;;2.92;;
2548;SDS011;1284;53.520;10.248;2023-07-29T04:31:23;6.88;;;3.33;;
2548;SDS011;1284;53.520;10.248;2023-07-29T04:33:49;4.78;;;2.78;;
2548;SDS011;1284;53.520;10.248;2023-07-29T04:36:16;4.47;;;2.65;;
2548;SDS011;1284;53.520;10.248;2023-07-29T04:38:43;5.22;;;2.47;;
2548;SDS011;1284;53.520;10.248;2023-07-29T04:41:09;6.55;;;3.42;;
2548;SDS011;1284;53.520;10.248;2023-07-29T04:43:34;6.53;;;3.05;;
2548;SDS011;1284;53.520;10.248;2023-07-29T04:46:00;5.88;;;3.17;;
2548;SDS011;1284;53.520;10.248;2023-07-29T04:48:26;5.88;;;2.75;;
2548;SDS011;1284;53.520;10.248;2023-07-29T04:50:51;4.65;;;2.83;;
2548;SDS011;1284;53.520;10.248;2023-07-29T04:53:17;5.68;;;3.42;;
2548;SDS011;1284;53.520;10.248;2023-07-29T04:55:42;6.05;;;3.15;;
2548;SDS011;1284;53.520;10.248;2023-07-29T04:58:08;5.43;;;3.17;;
2548;SDS011;1284;53.520;10.248;2023-07-29T05:00:35;5.97;;;3.22;;
2548;SDS011;1284;53.520;10.248;2023-07-29T05:03:02;8.80;;;3.33;;
2548;SDS011;1284;53.520;10.248;2023-07-29T05:05:28;7.78;;;4.15;;
2548;SDS011;1284;53.520;10.248;2023-07-29T05:07:53;15.25;;;4.32;;
2548;SDS011;1284;53.520;10.248;2023-07-29T05:10:19;6.60;;;3.92;;
2548;SDS011;1284;53.520;10.248;2023-07-29T05:12:44;7.25;;;3.92;;
2548;SDS011;1284;53.520;10.248;2023-07-29T05:15:10;6.40;;;3.38;;
2548;SDS011;1284;53.520;10.248;2023-07-29T05:17:35;6.53;;;3.70;;
2548;SDS011;1284;53.520;10.248;2023-07-29T05:20:01;6.47;;;3.50;;
2548;SDS011;1284;53.520;10.248;2023-07-29T05:22:26;7.07;;;3.80;;
2548;SDS011;1284;53.520;10.248;2023-07-29T05:24:52;6.95;;;4.40;;
2548;SDS011;1284;53.520;10.248;2023-07-29T05:27:17;6.47;;;3.72;;
2548;SDS011;1284;53.520;10.248;2023-07-29T05:29:43;15.05;;;5.10;;
2548;SDS011;1284;53.520;10.248;2023-07-29T05:32:08;10.70;;;4.53;;
2548;SDS011;1284;53.520;10.248;2023-07-29T05:34:33;13.45;;;5.60;;
2548;SDS011;1284;53.520;10.248;2023-07-29T05:36:59;11.25;;;4.80;;
2548;SDS011;1284;53.520;10.248;2023-07-29T05:39:24;10.20;;;4.93;;
2548;SDS011;1284;53.520;10.248;2023-07-29T05:41:50;11.43;;;5.15;;
2548;SDS011;1284;53.520;10.248;2023-07-29T05:44:15;11.30;;;5.80;;
2548;SDS011;1284;53.520;10.248;2023-07-29T05:46:41;13.68;;;6.32;;
2548;SDS011;1284;53.520;10.248;2023-07-29T05:49:06;11.75;;;5.05;;
2548;SDS011;1284;53.520;10.248;2023-07-29T05:51:32;12.38;;;5.25;;
2548;SDS011;1284;53.520;10.248;2023-07-29T05:53:57;10.80;;;5.18;;
2548;SDS011;1284;53.520;10.248;2023-07-29T05:56:23;10.35;;;4.93;;
2548;SDS011;1284;53.520;10.248;2023-07-29T05:58:50;12.05;;;5.50;;
2548;SDS011;1284;53.520;10.248;2023-07-29T06:01:16;11.80;;;6.07;;
2548;SDS011;1284;53.520;10.248;2023-07-29T06:03:42;12.20;;;5.75;;
2548;SDS011;1284;53.520;10.248;2023-07-29T06:06:08;13.93;;;6.05;;
2548;SDS011;1284;53.520;10.248;2023-07-29T06:08:33;12.20;;;6.13;;
2548;SDS011;1284;53.520;10.248;2023-07-29T06:10:59;11.65;;;6.35;;
2548;SDS011;1284;53.520;10.248;2023-07-29T06:13:25;14.77;;;5.88;;
2548;SDS011;1284;53.520;10.248;2023-07-29T06:15:50;13.15;;;5.75;;
2548;SDS011;1284;53.520;10.248;2023-07-29T06:18:16;12.80;;;6.22;;
2548;SDS011;1284;53.520;10.248;2023-07-29T06:20:42;13.15;;;6.10;;
2548;SDS011;1284;53.520;10.248;2023-07-29T06:23:08;11.70;;;5.45;;
2548;SDS011;1284;53.520;10.248;2023-07-29T06:25:33;12.57;;;5.28;;
2548;SDS011;1284;53.520;10.248;2023-07-29T06:27:59;10.50;;;5.55;;
2548;SDS011;1284;53.520;10.248;2023-07-29T06:30:24;10.43;;;4.97;;
2548;SDS011;1284;53.520;10.248;2023-07-29T06:32:50;10.35;;;5.38;;
2548;SDS011;1284;53.520;10.248;2023-07-29T06:35:16;8.77;;;4.85;;
2548;SDS011;1284;53.520;10.248;2023-07-29T06:37:41;9.55;;;5.60;;
2548;SDS011;1284;53.520;10.248;2023-07-29T06:40:07;10.18;;;5.18;;
2548;SDS011;1284;53.520;10.248;2023-07-29T06:42:32;11.05;;;5.43;;
2548;SDS011;1284;53.520;10.248;2023-07-29T06:44:58;9.27;;;4.55;;
2548;SDS011;1284;53.520;10.248;2023-07-29T06:47:23;10.35;;;5.38;;
2548;SDS011;1284;53.520;10.248;2023-07-29T06:49:49;11.27;;;5.00;;
2548;SDS011;1284;53.520;10.248;2023-07-29T06:52:14;11.77;;;5.63;;
2548;SDS011;1284;53.520;10.248;2023-07-29T06:54:40;10.85;;;4.70;;
2548;SDS011;1284;53.520;10.248;2023-07-29T06:57:05;8.68;;;3.97;;
2548;SDS011;1284;53.520;10.248;2023-07-29T06:59:31;9.07;;;4.45;;
2548;SDS011;1284;53.520;10.248;2023-07-29T07:01:56;9.15;;;4.70;;
2548;SDS011;1284;53.520;10.248;2023-07-29T07:04:22;12.93;;;5.30;;
2548;SDS011;1284;53.520;10.248;2023-07-29T07:06:47;8.90;;;4.60;;
2548;SDS011;1284;53.520;10.248;2023-07-29T07:09:13;8.15;;;4.28;;
2548;SDS011;1284;53.520;10.248;2023-07-29T07:11:38;9.32;;;4.50;;
2548;SDS011;1284;53.520;10.248;2023-07-29T07:14:07;8.77;;;4.72;;
2548;SDS011;1284;53.520;10.248;2023-07-29T07:16:32;10.10;;;4.40;;
2548;SDS011;1284;53.520;10.248;2023-07-29T07:18:57;7.18;;;4.38;;
2548;SDS011;1284;53.520;10.248;2023-07-29T07:21:23;6.75;;;4.03;;
2548;SDS011;1284;53.520;10.248;2023-07-29T07:23:51;8.80;;;4.00;;
2548;SDS011;1284;53.520;10.248;2023-07-29T07:26:17;7.90;;;4.25;;
2548;SDS011;1284;53.520;10.248;2023-07-29T07:28:42;8.50;;;4.20;;
2548;SDS011;1284;53.520;10.248;2023-07-29T07:31:08;7.15;;;3.72;;
2548;SDS011;1284;53.520;10.248;2023-07-29T07:33:33;6.97;;;3.65;;
2548;SDS011;1284;53.520;10.248;2023-07-29T07:35:58;6.82;;;3.05;;
2548;SDS011;1284;53.520;10.248;2023-07-29T07:38:24;5.85;;;3.33;;
2548;SDS011;1284;53.520;10.248;2023-07-29T07:40:53;6.95;;;3.42;;
2548;SDS011;1284;53.520;10.248;2023-07-29T07:43:22;6.22;;;3.15;;
2548;SDS011;1284;53.520;10.248;2023-07-29T07:45:48;6.72;;;4.13;;
2548;SDS011;1284;53.520;10.248;2023-07-29T07:48:14;7.13;;;3.45;;
2548;SDS011;1284;53.520;10.248;2023-07-29T07:50:39;6.13;;;3.55;;
2548;SDS011;1284;53.520;10.248;2023-07-29T07:53:05;4.40;;;2.30;;
2548;SDS011;1284;53.520;10.248;2023-07-29T07:55:51;6.45;;;2.95;;
2548;SDS011;1284;53.520;10.248;2023-07-29T07:58:16;5.68;;;3.10;;
2548;SDS011;1284;53.520;10.248;2023-07-29T08:00:42;5.68;;;2.90;;
2548;SDS011;1284;53.520;10.248;2023-07-29T08:03:08;4.80;;;2.95;;
2548;SDS011;1284;53.520;10.248;2023-07-29T08:05:33;7.72;;;3.00;;
2548;SDS011;1284;53.520;10.248;2023-07-29T08:07:59;3.50;;;2.30;;
2548;SDS011;1284;53.520;10.248;2023-07-29T08:10:24;5.30;;;2.25;;
2548;SDS011;1284;53.520;10.248;2023-07-29T08:12:50;5.07;;;2.63;;
2548;SDS011;1284;53.520;10.248;2023-07-29T08:15:15;3.90;;;2.20;;
2548;SDS011;1284;53.520;10.248;2023-07-29T08:17:40;4.97;;;2.55;;
2548;SDS011;1284;53.520;10.248;2023-07-29T08:20:06;3.03;;;2.17;;
2548;SDS011;1284;53.520;10.248;2023-07-29T08:22:32;3.38;;;2.20;;
2548;SDS011;1284;53.520;10.248;2023-07-29T08:24:57;3.08;;;2.40;;
2548;SDS011;1284;53.520;10.248;2023-07-29T08:27:23;4.13;;;2.55;;
2548;SDS011;1284;53.520;10.248;2023-07-29T08:29:48;3.50;;;2.50;;
2548;SDS011;1284;53.520;10.248;2023-07-29T08:32:14;5.47;;;2.15;;
2548;SDS011;1284;53.520;10.248;2023-07-29T08:34:39;3.38;;;2.25;;
2548;SDS011;1284;53.520;10.248;2023-07-29T08:37:05;4.38;;;2.53;;
2548;SDS011;1284;53.520;10.248;2023-07-29T08:39:30;3.78;;;2.65;;
2548;SDS011;1284;53.520;10.248;2023-07-29T08:41:57;3.90;;;2.20;;
2548;SDS011;1284;53.520;10.248;2023-07-29T08:44:40;4.57;;;2.13;;
2548;SDS011;1284;53.520;10.248;2023-07-29T08:47:07;3.50;;;1.98;;
2548;SDS011;1284;53.520;10.248;2023-07-29T08:49:33;4.53;;;2.20;;
2548;SDS011;1284;53.520;10.248;2023-07-29T08:51:59;7.38;;;2.33;;
2548;SDS011;1284;53.520;10.248;2023-07-29T08:54:24;3.53;;;2.28;;
2548;SDS011;1284;53.520;10.248;2023-07-29T08:56:50;2.35;;;1.52;;
2548;SDS011;1284;53.520;10.248;2023-07-29T08:59:16;4.15;;;2.13;;
2548;SDS011;1284;53.520;10.248;2023-07-29T09:01:43;4.80;;;1.80;;
2548;SDS011;1284;53.520;10.248;2023-07-29T09:04:09;4.35;;;2.05;;
2548;SDS011;1284;53.520;10.248;2023-07-29T09:06:34;3.97;;;2.15;;
2548;SDS011;1284;53.520;10.248;2023-07-29T09:09:01;3.83;;;2.40;;
2548;SDS011;1284;53.520;10.248;2023-07-29T09:11:27;3.25;;;1.92;;
2548;SDS011;1284;53.520;10.248;2023-07-29T09:13:53;5.20;;;2.42;;
2548;SDS011;1284;53.520;10.248;2023-07-29T09:16:21;3.80;;;2.30;;
2548;SDS011;1284;53.520;10.248;2023-07-29T09:18:48;2.67;;;2.00;;
2548;SDS011;1284;53.520;10.248;2023-07-29T09:21:17;3.50;;;1.88;;
2548;SDS011;1284;53.520;10.248;2023-07-29T09:23:47;2.95;;;1.98;;
2548;SDS011;1284;53.520;10.248;2023-07-29T09:26:14;3.90;;;1.90;;
2548;SDS011;1284;53.520;10.248;2023-07-29T09:28:51;2.22;;;1.77;;
2548;SDS011;1284;53.520;10.248;2023-07-29T09:31:23;2.67;;;1.75;;
2548;SDS011;1284;53.520;10.248;2023-07-29T09:33:50;4.07;;;2.00;;
2548;SDS011;1284;53.520;10.248;2023-07-29T09:36:22;2.58;;;1.58;;
2548;SDS011;1284;53.520;10.248;2023-07-29T09:38:47;3.25;;;1.80;;
2548;SDS011;1284;53.520;10.248;2023-07-29T09:41:13;3.95;;;2.55;;
2548;SDS011;1284;53.520;10.248;2023-07-29T09:43:40;2.80;;;1.77;;
2548;SDS011;1284;53.520;10.248;2023-07-29T09:46:06;3.38;;;2.25;;
2548;SDS011;1284;53.520;10.248;2023-07-29T09:48:34;3.40;;;2.33;;
2548;SDS011;1284;53.520;10.248;2023-07-29T09:51:13;3.47;;;2.17;;
2548;SDS011;1284;53.520;10.248;2023-07-29T09:53:41;6.35;;;2.00;;
2548;SDS011;1284;53.520;10.248;2023-07-29T09:56:08;2.78;;;1.92;;
2548;SDS011;1284;53.520;10.248;2023-07-29T09:58:33;2.80;;;2.00;;
2548;SDS011;1284;53.520;10.248;2023-07-29T10:01:00;17.45;;;2.55;;
2548;SDS011;1284;53.520;10.248;2023-07-29T10:03:26;1.95;;;1.52;;
2548;SDS011;1284;53.520;10.248;2023-07-29T10:05:53;4.05;;;1.92;;
2548;SDS011;1284;53.520;10.248;2023-07-29T10:08:19;3.65;;;2.10;;
2548;SDS011;1284;53.520;10.248;2023-07-29T10:10:47;2.83;;;1.88;;
2548;SDS011;1284;53.520;10.248;2023-07-29T10:13:15;3.15;;;1.90;;
2548;SDS011;1284;53.520;10.248;2023-07-29T10:15:41;2.40;;;1.90;;
2548;SDS011;1284;53.520;10.248;2023-07-29T10:18:07;3.88;;;2.10;;
2548;SDS011;1284;53.520;10.248;2023-07-29T10:20:32;3.33;;;1.75;;
2548;SDS011;1284;53.520;10.248;2023-07-29T10:23:00;2.78;;;1.60;;
2548;SDS011;1284;53.520;10.248;2023-07-29T10:25:34;2.70;;;1.77;;
2548;SDS011;1284;53.520;10.248;2023-07-29T10:28:06;3.85;;;1.88;;
2548;SDS011;1284;53.520;10.248;2023-07-29T10:30:32;3.00;;;1.40;;
2548;SDS011;1284;53.520;10.248;2023-07-29T10:32:59;1.90;;;1.25;;
2548;SDS011;1284;53.520;10.248;2023-07-29T10:35:27;2.50;;;1.50;;
2548;SDS011;1284;53.520;10.248;2023-07-29T10:37:52;1.67;;;1.30;;
2548;SDS011;1284;53.520;10.248;2023-07-29T10:40:19;1.95;;;1.45;;
2548;SDS011;1284;53.520;10.248;2023-07-29T10:43:01;2.03;;;1.35;;
2548;SDS011;1284;53.520;10.248;2023-07-29T10:45:36;2.08;;;1.48;;
2548;SDS011;1284;53.520;10.248;2023-07-29T10:48:05;1.88;;;1.30;;
2548;SDS011;1284;53.520;10.248;2023-07-29T10:50:37;1.20;;;1.10;;
2548;SDS011;1284;53.520;10.248;2023-07-29T10:53:03;2.55;;;1.58;;
2548;SDS011;1284;53.520;10.248;2023-07-29T10:58:05;1.83;;;1.10;;
2548;SDS011;1284;53.520;10.248;2023-07-29T11:03:05;1.63;;;1.10;;
2548;SDS011;1284;53.520;10.248;2023-07-29T11:05:42;1.58;;;1.40;;
2548;SDS011;1284;53.520;10.248;2023-07-29T11:08:18;2.05;;;1.20;;
2548;SDS011;1284;53.520;10.248;2023-07-29T11:13:28;2.90;;;1.30;;
2548;SDS011;1284;53.520;10.248;2023-07-29T11:15:55;1.67;;;1.30;;
2548;SDS011;1284;53.520;10.248;2023-07-29T11:18:23;1.98;;;1.17;;
2548;SDS011;1284;53.520;10.248;2023-07-29T11:20:51;1.88;;;1.10;;
2548;SDS011;1284;53.520;10.248;2023-07-29T11:23:19;1.30;;;1.08;;
2548;SDS011;1284;53.520;10.248;2023-07-29T11:25:45;4.13;;;0.65;;
2548;SDS011;1284;53.520;10.248;2023-07-29T11:28:11;1.48;;;0.70;;
2548;SDS011;1284;53.520;10.248;2023-07-29T11:30:39;1.40;;;1.10;;
2548;SDS011;1284;53.520;10.248;2023-07-29T11:33:04;1.40;;;1.02;;
2548;SDS011;1284;53.520;10.248;2023-07-29T11:35:31;0.63;;;0.63;;
2548;SDS011;1284;53.520;10.248;2023-07-29T11:37:57;2.15;;;0.68;;
2548;SDS011;1284;53.520;10.248;2023-07-29T11:40:23;3.00;;;0.70;;
2548;SDS011;1284;53.520;10.248;2023-07-29T11:42:49;0.85;;;0.70;;
2548;SDS011;1284;53.520;10.248;2023-07-29T11:45:16;1.10;;;0.63;;
2548;SDS011;1284;53.520;10.248;2023-07-29T11:47:41;1.17;;;0.88;;
2548;SDS011;1284;53.520;10.248;2023-07-29T11:50:08;1.13;;;0.82;;
2548;SDS011;1284;53.520;10.248;2023-07-29T11:52:38;1.23;;;0.90;;
2548;SDS011;1284;53.520;10.248;2023-07-29T11:55:05;2.03;;;1.10;;
2548;SDS011;1284;53.520;10.248;2023-07-29T11:57:35;2.60;;;0.95;;
2548;SDS011;1284;53.520;10.248;2023-07-29T12:00:03;0.98;;;0.70;;
2548;SDS011;1284;53.520;10.248;2023-07-29T12:02:34;3.60;;;0.93;;
2548;SDS011;1284;53.520;10.248;2023-07-29T12:05:02;0.98;;;0.88;;
2548;SDS011;1284;53.520;10.248;2023-07-29T12:07:29;1.23;;;1.10;;
2548;SDS011;1284;53.520;10.248;2023-07-29T12:09:54;1.52;;;1.05;;
2548;SDS011;1284;53.520;10.248;2023-07-29T12:12:21;1.02;;;0.70;;
2548;SDS011;1284;53.520;10.248;2023-07-29T12:14:48;0.98;;;0.73;;
2548;SDS011;1284;53.520;10.248;2023-07-29T12:17:14;1.27;;;0.95;;
2548;SDS011;1284;53.520;10.248;2023-07-29T12:19:40;1.05;;;0.95;;
2548;SDS011;1284;53.520;10.248;2023-07-29T12:22:07;2.05;;;1.20;;
2548;SDS011;1284;53.520;10.248;2023-07-29T12:24:39;1.17;;;0.98;;
2548;SDS011;1284;53.520;10.248;2023-07-29T12:27:14;1.10;;;0.95;;
2548;SDS011;1284;53.520;10.248;2023-07-29T12:29:41;1.27;;;0.98;;
2548;SDS011;1284;53.520;10.248;2023-07-29T12:32:07;1.90;;;1.30;;
2548;SDS011;1284;53.520;10.248;2023-07-29T12:34:34;1.38;;;1.27;;
2548;SDS011;1284;53.520;10.248;2023-07-29T12:37:02;2.17;;;1.02;;
2548;SDS011;1284;53.520;10.248;2023-07-29T12:39:29;1.13;;;0.85;;
2548;SDS011;1284;53.520;10.248;2023-07-29T12:41:57;1.45;;;1.10;;
2548;SDS011;1284;53.520;10.248;2023-07-29T12:44:24;2.65;;;1.23;;
2548;SDS011;1284;53.520;10.248;2023-07-29T12:46:51;2.35;;;1.30;;
2548;SDS011;1284;53.520;10.248;2023-07-29T12:49:17;1.70;;;1.10;;
2548;SDS011;1284;53.520;10.248;2023-07-29T12:51:42;1.42;;;0.90;;
2548;SDS011;1284;53.520;10.248;2023-07-29T12:54:08;2.15;;;0.90;;
2548;SDS011;1284;53.520;10.248;2023-07-29T12:56:34;1.13;;;0.90;;
2548;SDS011;1284;53.520;10.248;2023-07-29T12:59:00;1.15;;;0.93;;
2548;SDS011;1284;53.520;10.248;2023-07-29T13:01:27;1.75;;;0.80;;
2548;SDS011;1284;53.520;10.248;2023-07-29T13:03:53;1.20;;;0.75;;
2548;SDS011;1284;53.520;10.248;2023-07-29T13:06:18;2.55;;;0.80;;
2548;SDS011;1284;53.520;10.248;2023-07-29T13:08:44;0.85;;;0.80;;
2548;SDS011;1284;53.520;10.248;2023-07-29T13:11:10;1.35;;;1.10;;
2548;SDS011;1284;53.520;10.248;2023-07-29T13:13:36;1.13;;;0.90;;
2548;SDS011;1284;53.520;10.248;2023-07-29T13:16:01;2.97;;;1.40;;
2548;SDS011;1284;53.520;10.248;2023-07-29T13:18:27;1.30;;;0.68;;
2548;SDS011;1284;53.520;10.248;2023-07-29T13:20:53;1.85;;;0.85;;
2548;SDS011;1284;53.520;10.248;2023-07-29T13:23:19;0.80;;;0.80;;
2548;SDS011;1284;53.520;10.248;2023-07-29T13:25:45;0.88;;;0.65;;
2548;SDS011;1284;53.520;10.248;2023-07-29T13:28:11;0.82;;;0.70;;
2548;SDS011;1284;53.520;10.248;2023-07-29T13:30:38;0.52;;;0.52;;
2548;SDS011;1284;53.520;10.248;2023-07-29T13:33:04;0.80;;;0.80;;
2548;SDS011;1284;53.520;10.248;2023-07-29T13:35:30;0.80;;;0.70;;
2548;SDS011;1284;53.520;10.248;2023-07-29T13:37:55;1.65;;;0.95;;
2548;SDS011;1284;53.520;10.248;2023-07-29T13:40:21;0.70;;;0.60;;
2548;SDS011;1284;53.520;10.248;2023-07-29T13:42:46;0.95;;;0.85;;
2548;SDS011;1284;53.520;10.248;2023-07-29T13:45:12;0.93;;;0.60;;
2548;SDS011;1284;53.520;10.248;2023-07-29T13:47:37;0.80;;;0.60;;
2548;SDS011;1284;53.520;10.248;2023-07-29T13:50:03;1.30;;;0.90;;
2548;SDS011;1284;53.520;10.248;2023-07-29T13:52:28;0.95;;;0.82;;
2548;SDS011;1284;53.520;10.248;2023-07-29T13:54:54;0.70;;;0.60;;
2548;SDS011;1284;53.520;10.248;2023-07-29T13:57:19;0.93;;;0.80;;
2548;SDS011;1284;53.520;10.248;2023-07-29T13:59:45;0.80;;;0.50;;
2548;SDS011;1284;53.520;10.248;2023-07-29T14:02:10;0.60;;;0.60;;
2548;SDS011;1284;53.520;10.248;2023-07-29T14:04:35;3.33;;;0.85;;
2548;SDS011;1284;53.520;10.248;2023-07-29T14:07:01;1.17;;;0.90;;
2548;SDS011;1284;53.520;10.248;2023-07-29T14:09:26;0.82;;;0.80;;
2548;SDS011;1284;53.520;10.248;2023-07-29T14:11:53;3.78;;;1.02;;
2548;SDS011;1284;53.520;10.248;2023-07-29T14:14:20;0.85;;;0.65;;
2548;SDS011;1284;53.520;10.248;2023-07-29T14:16:45;0.73;;;0.63;;
2548;SDS011;1284;53.520;10.248;2023-07-29T14:19:12;0.70;;;0.63;;
2548;SDS011;1284;53.520;10.248;2023-07-29T14:21:38;1.40;;;0.93;;
2548;SDS011;1284;53.520;10.248;2023-07-29T14:24:04;1.55;;;0.77;;
2548;SDS011;1284;53.520;10.248;2023-07-29T14:26:32;0.68;;;0.60;;
2548;SDS011;1284;53.520;10.248;2023-07-29T14:28:57;1.65;;;0.95;;
2548;SDS011;1284;53.520;10.248;2023-07-29T14:31:23;0.77;;;0.70;;
2548;SDS011;1284;53.520;10.248;2023-07-29T14:33:48;1.20;;;0.80;;
2548;SDS011;1284;53.520;10.248;2023-07-29T14:36:16;1.70;;;0.93;;
2548;SDS011;1284;53.520;10.248;2023-07-29T14:38:42;0.90;;;0.85;;
2548;SDS011;1284;53.520;10.248;2023-07-29T14:41:07;1.40;;;0.95;;
2548;SDS011;1284;53.520;10.248;2023-07-29T14:43:34;1.52;;;0.80;;
2548;SDS011;1284;53.520;10.248;2023-07-29T14:46:00;4.82;;;0.70;;
2548;SDS011;1284;53.520;10.248;2023-07-29T14:48:26;0.65;;;0.60;;
2548;SDS011;1284;53.520;10.248;2023-07-29T14:50:51;0.80;;;0.75;;
2548;SDS011;1284;53.520;10.248;2023-07-29T14:53:17;1.52;;;0.68;;
2548;SDS011;1284;53.520;10.248;2023-07-29T14:55:43;0.88;;;0.65;;
2548;SDS011;1284;53.520;10.248;2023-07-29T14:58:08;0.90;;;0.77;;
2548;SDS011;1284;53.520;10.248;2023-07-29T15:00:34;1.00;;;0.77;;
2548;SDS011;1284;53.520;10.248;2023-07-29T15:02:59;0.90;;;0.70;;
2548;SDS011;1284;53.520;10.248;2023-07-29T15:05:25;1.17;;;0.85;;
2548;SDS011;1284;53.520;10.248;2023-07-29T15:07:50;1.73;;;0.63;;
2548;SDS011;1284;53.520;10.248;2023-07-29T15:10:16;0.95;;;0.50;;